createdAt,value
2022-11-18T00:00:42.276Z,9.60
2022-11-18T00:07:24.669Z,9.60
2022-11-18T00:14:25.557Z,9.50
2022-11-18T00:21:11.734Z,9.60
2022-11-18T00:27:54.688Z,9.50
2022-11-18T00:34:37.078Z,9.50
2022-11-18T00:41:19.419Z,9.60
2022-11-18T00:48:02.878Z,9.70
2022-11-18T00:54:45.194Z,9.70
2022-11-18T01:01:27.604Z,9.60
2022-11-18T01:08:11.697Z,9.50
2022-11-18T01:14:54.043Z,9.50
2022-11-18T01:21:36.557Z,9.60
2022-11-18T01:28:23.662Z,9.50
2022-11-18T01:35:12.556Z,9.70
2022-11-18T01:41:54.935Z,9.90
2022-11-18T01:48:39.131Z,9.80
2022-11-18T01:55:29.172Z,9.90
2022-11-18T02:02:13.766Z,10.00
2022-11-18T02:08:56.981Z,10.20
2022-11-18T02:15:56.815Z,10.00
2022-11-18T02:23:17.392Z,9.90
2022-11-18T02:30:08.659Z,9.90
2022-11-18T02:37:36.112Z,9.80
2022-11-18T02:44:20.865Z,9.70
2022-11-18T02:51:06.050Z,9.80
2022-11-18T02:57:48.987Z,9.80
2022-11-18T03:04:33.867Z,9.90
2022-11-18T03:11:22.800Z,10.10
2022-11-18T03:18:36.118Z,10.10
2022-11-18T03:25:28.845Z,10.20
2022-11-18T03:32:26.152Z,10.20
2022-11-18T03:39:12.159Z,10.10
2022-11-18T03:46:10.191Z,10.20
2022-11-18T03:52:54.193Z,10.10
2022-11-18T03:59:44.310Z,10.00
2022-11-18T04:06:48.724Z,10.00
2022-11-18T04:13:35.333Z,10.10
2022-11-18T04:20:20.310Z,10.10
2022-11-18T04:27:03.834Z,10.00
2022-11-18T04:33:46.145Z,10.10
2022-11-18T04:40:28.585Z,10.00
2022-11-18T04:47:11.106Z,10.00
2022-11-18T04:53:53.576Z,9.90
2022-11-18T05:00:41.968Z,9.70
2022-11-18T05:07:24.415Z,9.50
2022-11-18T05:14:06.843Z,9.40
2022-11-18T05:20:49.189Z,9.40
2022-11-18T05:27:31.537Z,9.50
2022-11-18T05:34:14.975Z,9.50
2022-11-18T05:40:57.435Z,9.50
2022-11-18T05:47:59.751Z,9.50
2022-11-18T05:54:49.556Z,9.50
2022-11-18T06:01:46.051Z,9.50
2022-11-18T06:08:35.418Z,9.40
2022-11-18T06:15:21.186Z,9.50
2022-11-18T06:22:04.403Z,9.50
2022-11-18T06:28:51.868Z,9.50
2022-11-18T06:35:34.784Z,9.50
2022-11-18T06:42:35.620Z,9.40
2022-11-18T06:49:18.203Z,9.40
2022-11-18T06:56:09.360Z,9.50
2022-11-18T07:02:51.695Z,9.60
2022-11-18T07:09:37.468Z,9.60
2022-11-18T07:16:22.387Z,9.60
2022-11-18T07:23:04.946Z,9.60
2022-11-18T07:29:47.302Z,9.60
2022-11-18T07:36:35.407Z,9.70
2022-11-18T07:43:18.395Z,9.80
2022-11-18T07:50:00.759Z,9.80
2022-11-18T07:56:43.351Z,9.90
2022-11-18T08:03:27.722Z,9.90
2022-11-18T08:10:10.281Z,9.90
2022-11-18T08:17:02.951Z,9.90
2022-11-18T08:23:50.924Z,10.00
2022-11-18T08:30:34.209Z,10.20
2022-11-18T08:37:16.972Z,10.30
2022-11-18T08:44:00.369Z,10.40
2022-11-18T08:50:42.762Z,10.40
2022-11-18T08:57:25.108Z,10.60
2022-11-18T09:04:10.631Z,10.80
2022-11-18T09:10:52.954Z,11.10
2022-11-18T09:17:35.374Z,11.20
2022-11-18T09:24:19.599Z,11.20
2022-11-18T09:31:14.511Z,11.10
2022-11-18T09:37:56.901Z,11.10
2022-11-18T09:45:22.432Z,11.10
2022-11-18T09:52:12.613Z,11.10
2022-11-18T09:58:55.503Z,11.00
2022-11-18T10:05:45.455Z,10.80
2022-11-18T10:12:41.644Z,10.80
2022-11-18T10:19:38.988Z,11.00
2022-11-18T10:26:37.100Z,11.00
2022-11-18T10:33:22.253Z,11.20
2022-11-18T10:40:06.290Z,11.10
2022-11-18T10:46:48.648Z,11.20
2022-11-18T10:53:37.555Z,11.40
2022-11-18T11:00:36.699Z,11.60
2022-11-18T11:07:27.739Z,11.90
2022-11-18T11:14:24.929Z,11.80
2022-11-18T11:21:20.461Z,11.60
2022-11-18T11:35:18.183Z,11.30
2022-11-18T11:42:33.197Z,11.20
2022-11-18T11:49:27.851Z,11.60
2022-11-18T11:56:23.008Z,11.70
2022-11-18T12:03:36.210Z,11.90
2022-11-18T12:10:36.910Z,12.20
2022-11-18T12:17:25.002Z,12.30
2022-11-18T12:24:31.562Z,12.40
2022-11-18T12:31:19.396Z,12.20
2022-11-18T12:38:03.625Z,12.00
2022-11-18T12:44:48.754Z,12.10
2022-11-18T12:51:41.617Z,12.20
2022-11-18T12:58:30.246Z,12.30
2022-11-18T13:05:20.965Z,12.30
2022-11-18T13:12:15.654Z,12.00
2022-11-18T13:18:58.011Z,11.60
2022-11-18T13:25:42.585Z,11.60
2022-11-18T13:32:27.383Z,11.90
2022-11-18T13:39:21.576Z,12.20
2022-11-18T13:46:12.697Z,12.30
2022-11-18T13:52:54.943Z,12.20
2022-11-18T13:59:37.308Z,12.00
2022-11-18T14:06:30.509Z,11.60
2022-11-18T14:13:20.333Z,11.70
2022-11-18T14:20:09.792Z,11.60
2022-11-18T14:27:39.097Z,11.50
2022-11-18T14:34:41.897Z,11.30
2022-11-18T14:41:45.167Z,11.10
2022-11-18T14:48:32.637Z,10.90
2022-11-18T14:55:15.227Z,10.80
2022-11-18T15:01:58.572Z,10.80
2022-11-18T15:08:43.116Z,10.70
2022-11-18T15:15:25.503Z,10.60
2022-11-18T15:22:08.114Z,10.50
2022-11-18T15:28:52.410Z,10.40
2022-11-18T15:35:34.788Z,10.50
2022-11-18T15:42:23.167Z,10.50
2022-11-18T15:49:09.289Z,10.50
2022-11-18T15:55:52.241Z,10.60
2022-11-18T16:02:34.586Z,10.70
2022-11-18T16:09:17.849Z,10.50
2022-11-18T16:16:00.657Z,10.70
2022-11-18T16:22:43.233Z,10.70
2022-11-18T16:29:27.385Z,10.70
2022-11-18T16:36:09.759Z,10.70
2022-11-18T16:42:52.456Z,10.70
2022-11-18T16:49:34.826Z,10.70
2022-11-18T16:56:17.203Z,10.70
2022-11-18T17:02:59.541Z,10.40
2022-11-18T17:09:41.864Z,10.30
2022-11-18T17:16:24.897Z,10.40
2022-11-18T17:23:07.198Z,10.50
2022-11-18T17:29:50.812Z,10.50
2022-11-18T17:36:33.357Z,10.50
2022-11-18T17:43:15.912Z,10.70
2022-11-18T17:49:58.453Z,10.30
2022-11-18T17:56:41.055Z,10.30
2022-11-18T18:03:23.367Z,10.30
2022-11-18T18:10:06.120Z,10.30
2022-11-18T18:16:50.512Z,10.30
2022-11-18T18:23:34.476Z,10.30
2022-11-18T18:30:17.280Z,10.20
2022-11-18T18:37:00.164Z,10.10
2022-11-18T18:43:42.505Z,10.10
2022-11-18T18:50:29.547Z,10.00
2022-11-18T18:57:12.210Z,9.90
2022-11-18T19:03:59.926Z,9.70
2022-11-18T19:10:42.204Z,9.50
2022-11-18T19:17:24.553Z,9.50
2022-11-18T19:24:28.345Z,9.40
2022-11-18T19:31:11.246Z,9.40
2022-11-18T19:37:53.683Z,9.40
2022-11-18T19:44:36.011Z,9.40
2022-11-18T19:51:18.387Z,9.50
2022-11-18T19:58:00.755Z,9.40
2022-11-18T20:05:05.065Z,9.20
2022-11-18T20:11:47.378Z,9.20
2022-11-18T20:18:30.558Z,9.20
2022-11-18T20:25:15.490Z,9.20
2022-11-18T20:31:57.800Z,9.30
2022-11-18T20:38:41.795Z,9.20
2022-11-18T20:45:24.212Z,9.20
2022-11-18T20:52:06.549Z,9.20
2022-11-18T20:58:49.098Z,9.20
2022-11-18T21:05:31.452Z,9.10
2022-11-18T21:12:13.776Z,9.10
2022-11-18T21:18:56.423Z,9.00
2022-11-18T21:25:39.364Z,9.00
2022-11-18T21:32:21.680Z,9.10
2022-11-18T21:39:04.917Z,9.20
2022-11-18T21:45:47.242Z,9.20
2022-11-18T21:52:29.656Z,9.20
2022-11-18T21:59:12.074Z,9.30
2022-11-18T22:05:55.025Z,9.40
2022-11-18T22:12:37.349Z,9.30
2022-11-18T22:19:19.738Z,9.40
2022-11-18T22:26:05.963Z,9.40
2022-11-18T22:32:48.316Z,9.50
2022-11-18T22:39:30.665Z,9.50
2022-11-18T22:46:12.985Z,9.30
2022-11-18T22:52:55.332Z,9.30
2022-11-18T22:59:37.677Z,9.40
2022-11-18T23:06:20.780Z,9.20
2022-11-18T23:13:21.944Z,9.00
2022-11-18T23:20:04.679Z,8.90
2022-11-18T23:26:47.841Z,9.00
2022-11-18T23:33:30.129Z,9.20
2022-11-18T23:40:12.783Z,9.20
2022-11-18T23:46:55.088Z,9.30
2022-11-18T23:53:38.445Z,9.20
